createdAt,value
2018-07-12T00:01:15.406Z,47.90
2018-07-12T00:03:42.642Z,48.87
2018-07-12T00:06:09.755Z,49.57
2018-07-12T00:08:36.858Z,49.33
2018-07-12T00:11:03.963Z,46.00
2018-07-12T00:13:31.063Z,48.03
2018-07-12T00:15:58.162Z,48.03
2018-07-12T00:18:25.262Z,46.53
2018-07-12T00:20:52.378Z,46.37
2018-07-12T00:23:19.486Z,46.60
2018-07-12T00:25:46.579Z,46.87
2018-07-12T00:28:13.687Z,47.33
2018-07-12T00:30:40.787Z,47.00
2018-07-12T00:33:08.450Z,45.40
2018-07-12T00:35:35.575Z,44.07
2018-07-12T00:38:02.688Z,44.80
2018-07-12T00:40:29.787Z,45.70
2018-07-12T00:42:56.966Z,41.50
2018-07-12T00:45:24.063Z,43.20
2018-07-12T00:47:51.225Z,40.43
2018-07-12T00:50:18.330Z,43.97
2018-07-12T00:52:45.439Z,42.93
2018-07-12T00:55:12.551Z,44.87
2018-07-12T00:57:39.654Z,42.97
2018-07-12T01:00:06.756Z,45.43
2018-07-12T01:02:33.851Z,43.93
2018-07-12T01:05:00.959Z,44.00
2018-07-12T01:07:28.061Z,45.63
2018-07-12T01:09:55.190Z,45.30
2018-07-12T01:12:22.299Z,40.90
2018-07-12T01:14:49.400Z,41.90
2018-07-12T01:17:16.502Z,41.17
2018-07-12T01:19:43.602Z,41.17
2018-07-12T01:22:10.708Z,37.13
2018-07-12T01:24:37.810Z,41.97
2018-07-12T01:27:04.924Z,42.00
2018-07-12T01:29:32.023Z,41.37
2018-07-12T01:31:59.140Z,39.83
2018-07-12T01:34:26.242Z,37.10
2018-07-12T01:36:53.363Z,42.13
2018-07-12T01:39:20.466Z,42.57
2018-07-12T01:41:47.567Z,41.37
2018-07-12T01:44:14.677Z,43.47
2018-07-12T01:46:41.778Z,40.80
2018-07-12T01:49:08.879Z,39.20
2018-07-12T01:51:35.985Z,39.27
2018-07-12T01:54:03.086Z,42.50
2018-07-12T01:59:03.747Z,39.40
2018-07-12T02:01:30.847Z,37.50
2018-07-12T02:03:57.960Z,41.97
2018-07-12T02:06:25.063Z,41.73
2018-07-12T02:08:52.163Z,41.17
2018-07-12T02:11:19.262Z,39.17
2018-07-12T02:13:46.367Z,41.57
2018-07-12T02:16:13.484Z,40.50
2018-07-12T02:18:40.587Z,41.77
2018-07-12T02:21:07.705Z,42.20
2018-07-12T02:23:34.807Z,41.67
2018-07-12T02:26:01.910Z,41.90
2018-07-12T02:28:29.014Z,41.43
2018-07-12T02:30:56.138Z,39.73
2018-07-12T02:33:23.243Z,41.97
2018-07-12T02:35:50.351Z,43.03
2018-07-12T02:38:17.465Z,43.10
2018-07-12T02:40:44.570Z,44.47
2018-07-12T02:43:11.678Z,46.43
2018-07-12T02:45:38.771Z,46.87
2018-07-12T02:48:05.879Z,47.80
2018-07-12T02:50:32.980Z,48.20
2018-07-12T02:53:00.087Z,48.00
2018-07-12T02:55:27.183Z,43.77
2018-07-12T02:57:54.290Z,42.67
2018-07-12T03:00:21.580Z,39.70
2018-07-12T03:02:48.667Z,38.23
2018-07-12T03:05:15.781Z,36.93
2018-07-12T03:07:42.891Z,35.47
2018-07-12T03:10:09.995Z,36.10
2018-07-12T03:12:37.098Z,36.80
2018-07-12T03:15:04.206Z,36.23
2018-07-12T03:17:31.310Z,39.60
2018-07-12T03:19:58.436Z,35.07
2018-07-12T03:22:25.530Z,38.03
2018-07-12T03:24:52.638Z,37.77
2018-07-12T03:27:19.793Z,36.27
2018-07-12T03:29:46.846Z,35.10
2018-07-12T03:32:13.991Z,36.13
2018-07-12T03:34:41.062Z,37.60
2018-07-12T03:37:08.174Z,36.70
2018-07-12T03:39:35.311Z,35.73
2018-07-12T03:42:02.427Z,34.90
2018-07-12T03:44:29.533Z,32.17
2018-07-12T03:46:56.655Z,37.97
2018-07-12T03:49:23.763Z,38.23
2018-07-12T03:51:50.859Z,42.30
2018-07-12T03:54:18.147Z,37.97
2018-07-12T03:56:45.254Z,35.73
2018-07-12T03:59:12.363Z,36.17
2018-07-12T04:01:39.462Z,37.87
2018-07-12T04:04:06.579Z,35.90
2018-07-12T04:06:33.684Z,37.33
2018-07-12T04:09:00.803Z,36.00
2018-07-12T04:11:27.903Z,37.30
2018-07-12T04:13:55.002Z,35.60
2018-07-12T04:16:22.111Z,36.67
2018-07-12T04:18:49.306Z,34.10
2018-07-12T04:21:16.432Z,34.30
2018-07-12T04:23:43.572Z,38.20
2018-07-12T04:26:10.672Z,35.37
2018-07-12T04:28:37.774Z,35.80
2018-07-12T04:31:04.883Z,34.40
2018-07-12T04:33:31.998Z,34.80
2018-07-12T04:35:59.104Z,35.27
2018-07-12T04:38:26.209Z,34.93
2018-07-12T04:40:53.323Z,32.97
2018-07-12T04:43:20.430Z,32.20
2018-07-12T04:45:47.535Z,32.77
2018-07-12T04:48:14.841Z,37.90
2018-07-12T04:50:41.955Z,40.27
2018-07-12T04:53:09.075Z,40.60
2018-07-12T04:55:36.187Z,40.43
2018-07-12T04:58:03.327Z,45.37
2018-07-12T05:00:30.431Z,45.57
2018-07-12T05:02:57.543Z,43.90
2018-07-12T05:05:24.654Z,40.97
2018-07-12T05:07:51.763Z,44.50
2018-07-12T05:10:18.879Z,43.50
2018-07-12T05:12:45.979Z,43.90
2018-07-12T05:15:13.087Z,41.83
2018-07-12T05:17:40.198Z,44.57
2018-07-12T05:20:07.334Z,46.80
2018-07-12T05:22:34.447Z,43.93
2018-07-12T05:25:01.535Z,46.70
2018-07-12T05:27:28.646Z,47.30
2018-07-12T05:29:55.745Z,44.37
2018-07-12T05:32:22.858Z,48.13
2018-07-12T05:34:49.959Z,46.37
2018-07-12T05:37:18.131Z,43.00
2018-07-12T05:39:46.299Z,44.13
2018-07-12T05:42:14.484Z,46.30
2018-07-12T05:44:42.654Z,47.63
2018-07-12T05:47:10.855Z,44.23
2018-07-12T05:49:39.027Z,39.33
2018-07-12T05:52:07.204Z,39.23
2018-07-12T05:54:35.382Z,41.23
2018-07-12T05:57:03.567Z,39.60
2018-07-12T05:59:31.743Z,38.20
2018-07-12T06:02:11.158Z,40.20
2018-07-12T06:04:39.339Z,40.77
2018-07-12T06:07:07.510Z,38.97
2018-07-12T06:09:35.695Z,39.70
2018-07-12T06:12:03.870Z,41.50
2018-07-12T06:14:32.046Z,44.97
2018-07-12T06:17:00.233Z,44.93
2018-07-12T06:19:28.393Z,48.57
2018-07-12T06:21:56.573Z,47.33
2018-07-12T06:24:24.762Z,48.50
2018-07-12T06:26:52.962Z,47.60
2018-07-12T06:29:21.141Z,49.40
2018-07-12T06:31:49.314Z,50.47
2018-07-12T06:34:17.486Z,52.33
2018-07-12T06:36:45.666Z,51.03
2018-07-12T06:39:13.834Z,53.80
2018-07-12T06:41:42.016Z,56.33
2018-07-12T06:44:10.198Z,59.60
2018-07-12T06:46:38.382Z,57.23
2018-07-12T06:49:06.562Z,54.27
2018-07-12T06:51:34.944Z,56.10
2018-07-12T06:54:03.123Z,54.17
2018-07-12T06:56:31.343Z,61.27
2018-07-12T06:58:59.510Z,62.83
2018-07-12T07:01:27.744Z,66.57
2018-07-12T07:03:56.015Z,64.57
2018-07-12T07:06:24.182Z,66.37
2018-07-12T07:08:52.375Z,64.03
2018-07-12T07:11:20.562Z,66.87
2018-07-12T07:13:49.142Z,70.40
2018-07-12T07:16:17.319Z,68.60
2018-07-12T07:18:45.515Z,68.03
2018-07-12T07:21:13.695Z,66.97
2018-07-12T07:23:42.027Z,66.83
2018-07-12T07:26:10.235Z,64.73
2018-07-12T07:28:38.351Z,59.10
2018-07-12T07:31:06.567Z,60.57
2018-07-12T07:33:34.722Z,60.10
2018-07-12T07:36:02.895Z,58.93
2018-07-12T07:38:31.066Z,62.20
2018-07-12T07:40:59.242Z,59.63
2018-07-12T07:43:27.404Z,64.37
2018-07-12T07:45:55.576Z,66.23
2018-07-12T07:48:23.730Z,65.40
2018-07-12T07:50:51.915Z,64.00
2018-07-12T07:53:20.083Z,56.47
2018-07-12T07:55:48.434Z,58.43
2018-07-12T07:58:16.630Z,60.87
2018-07-12T08:00:44.802Z,61.20
2018-07-12T08:03:13.125Z,57.63
2018-07-12T08:05:41.328Z,58.07
2018-07-12T08:08:09.490Z,59.97
2018-07-12T08:10:37.658Z,62.73
2018-07-12T08:13:05.822Z,56.40
2018-07-12T08:15:33.996Z,61.83
2018-07-12T08:18:02.167Z,61.10
2018-07-12T08:20:30.327Z,60.33
2018-07-12T08:22:58.495Z,55.20
2018-07-12T08:25:26.683Z,56.40
2018-07-12T08:28:06.178Z,55.40
2018-07-12T08:30:34.335Z,59.03
2018-07-12T08:33:02.509Z,58.73
2018-07-12T08:35:30.667Z,58.97
2018-07-12T08:37:58.840Z,59.50
2018-07-12T08:40:27.047Z,58.60
2018-07-12T08:42:55.171Z,59.57
2018-07-12T08:45:23.339Z,59.70
2018-07-12T08:47:51.506Z,62.30
2018-07-12T08:50:19.695Z,60.33
2018-07-12T08:52:47.869Z,61.90
2018-07-12T08:55:16.062Z,60.53
2018-07-12T08:57:44.423Z,58.00
2018-07-12T09:00:12.617Z,58.30
2018-07-12T09:02:41.107Z,53.73
2018-07-12T09:05:09.262Z,59.70
2018-07-12T09:07:37.434Z,56.67
2018-07-12T09:10:05.606Z,57.40
2018-07-12T09:12:33.803Z,53.27
2018-07-12T09:15:01.979Z,56.37
2018-07-12T09:17:30.160Z,54.53
2018-07-12T09:19:58.338Z,52.20
2018-07-12T09:22:26.511Z,50.53
2018-07-12T09:24:54.670Z,51.07
2018-07-12T09:27:22.838Z,53.00
2018-07-12T09:29:51.006Z,49.60
2018-07-12T09:32:19.190Z,45.03
2018-07-12T09:34:47.425Z,47.23
2018-07-12T09:37:15.535Z,47.23
2018-07-12T09:39:43.736Z,49.17
2018-07-12T09:42:11.858Z,49.80
2018-07-12T09:44:40.049Z,48.47
2018-07-12T09:47:08.235Z,48.43
2018-07-12T09:49:36.407Z,48.30
2018-07-12T09:52:08.750Z,47.40
2018-07-12T09:54:36.987Z,42.67
2018-07-12T09:57:16.362Z,43.37
2018-07-12T09:59:44.542Z,41.73
2018-07-12T10:02:18.086Z,42.90
2018-07-12T10:04:46.271Z,44.27
2018-07-12T10:07:19.649Z,42.60
2018-07-12T10:09:53.231Z,41.47
2018-07-12T10:12:26.842Z,41.47
2018-07-12T10:15:10.210Z,40.87
2018-07-12T10:17:43.514Z,45.67
2018-07-12T10:20:11.702Z,43.60
2018-07-12T10:22:39.879Z,42.47
2018-07-12T10:25:08.418Z,44.23
2018-07-12T10:27:36.551Z,38.13
2018-07-12T10:30:05.186Z,39.17
2018-07-12T10:32:33.346Z,38.10
2018-07-12T10:35:01.544Z,38.57
2018-07-12T10:37:29.727Z,37.60
2018-07-12T10:39:57.894Z,34.77
2018-07-12T10:42:26.060Z,36.07
2018-07-12T10:44:54.236Z,38.20
2018-07-12T10:47:22.550Z,36.50
2018-07-12T10:49:50.732Z,36.20
2018-07-12T10:52:18.915Z,34.57
2018-07-12T10:54:47.083Z,33.20
2018-07-12T10:57:15.262Z,34.63
2018-07-12T10:59:43.445Z,31.87
2018-07-12T11:02:11.623Z,34.90
2018-07-12T11:04:39.835Z,33.77
2018-07-12T11:07:08.007Z,31.60
2018-07-12T11:09:36.192Z,31.27
2018-07-12T11:12:04.359Z,29.10
2018-07-12T11:14:32.543Z,29.53
2018-07-12T11:17:00.710Z,31.20
2018-07-12T11:19:28.898Z,31.80
2018-07-12T11:21:57.059Z,31.17
2018-07-12T11:24:25.238Z,29.00
2018-07-12T11:26:53.423Z,28.30
2018-07-12T11:29:31.495Z,23.43
2018-07-12T11:31:59.702Z,25.90
2018-07-12T11:34:27.889Z,23.50
2018-07-12T11:36:56.108Z,24.40
2018-07-12T11:39:24.237Z,27.97
2018-07-12T11:41:52.445Z,25.37
2018-07-12T11:44:20.775Z,30.17
2018-07-12T11:46:49.007Z,29.53
2018-07-12T11:49:17.163Z,31.80
2018-07-12T11:51:45.519Z,29.93
2018-07-12T11:54:13.711Z,28.53
2018-07-12T11:56:42.118Z,27.33
2018-07-12T11:59:10.274Z,28.00
2018-07-12T12:01:38.509Z,29.20
2018-07-12T12:04:06.954Z,29.67
2018-07-12T12:06:35.118Z,28.83
2018-07-12T12:09:04.603Z,29.13
2018-07-12T12:11:32.767Z,31.40
2018-07-12T12:14:00.943Z,33.33
2018-07-12T12:16:29.123Z,31.03
2018-07-12T12:18:57.306Z,30.90
2018-07-12T12:21:25.731Z,30.70
2018-07-12T12:23:53.911Z,29.87
2018-07-12T12:26:22.645Z,27.87
2018-07-12T12:28:51.200Z,28.33
2018-07-12T12:31:19.386Z,30.33
2018-07-12T12:33:47.566Z,27.40
2018-07-12T12:36:15.763Z,28.87
2018-07-12T12:38:43.930Z,30.90
2018-07-12T12:41:12.111Z,29.50
2018-07-12T12:43:40.295Z,36.30
2018-07-12T12:46:08.515Z,35.10
2018-07-12T12:48:36.695Z,37.30
2018-07-12T12:51:04.953Z,34.77
2018-07-12T12:53:33.166Z,35.73
2018-07-12T12:56:01.683Z,33.27
2018-07-12T12:58:29.893Z,32.80
2018-07-12T13:00:58.101Z,32.33
2018-07-12T13:03:27.615Z,34.43
2018-07-12T13:05:55.894Z,31.40
2018-07-12T13:08:24.056Z,31.73
2018-07-12T13:10:52.309Z,32.30
2018-07-12T13:13:20.478Z,30.80
2018-07-12T13:15:49.084Z,29.03
2018-07-12T13:18:17.530Z,31.93
2018-07-12T13:20:45.872Z,29.50
2018-07-12T13:23:14.137Z,32.17
2018-07-12T13:25:42.795Z,31.87
2018-07-12T13:28:10.958Z,31.77
2018-07-12T13:30:39.263Z,28.63
2018-07-12T13:33:07.507Z,28.83
2018-07-12T13:35:35.976Z,29.20
2018-07-12T13:38:04.406Z,28.53
2018-07-12T13:40:32.742Z,30.13
2018-07-12T13:43:01.334Z,29.10
2018-07-12T13:45:29.994Z,27.70
2018-07-12T13:47:58.810Z,27.17
2018-07-12T13:50:28.047Z,27.27
2018-07-12T13:52:56.346Z,26.90
2018-07-12T13:55:24.814Z,27.77
2018-07-12T13:57:53.439Z,26.23
2018-07-12T14:00:22.170Z,26.73
2018-07-12T14:02:50.382Z,28.50
2018-07-12T14:05:19.869Z,27.43
2018-07-12T14:07:48.821Z,26.60
2018-07-12T14:10:17.146Z,25.97
2018-07-12T14:12:45.610Z,28.40
2018-07-12T14:15:13.775Z,27.60
2018-07-12T14:17:41.968Z,24.40
2018-07-12T14:20:10.131Z,25.40
2018-07-12T14:22:38.316Z,25.77
2018-07-12T14:25:06.506Z,23.90
2018-07-12T14:27:34.715Z,23.60
2018-07-12T14:30:02.891Z,25.70
2018-07-12T14:32:31.076Z,27.67
2018-07-12T14:34:59.275Z,29.17
2018-07-12T14:37:27.442Z,28.23
2018-07-12T14:39:55.619Z,26.93
2018-07-12T14:42:23.791Z,23.57
2018-07-12T14:44:51.971Z,22.97
2018-07-12T14:47:20.171Z,21.73
2018-07-12T14:49:48.347Z,22.60
2018-07-12T14:52:16.513Z,23.23
2018-07-12T14:54:44.682Z,21.97
2018-07-12T14:57:12.869Z,20.37
2018-07-12T14:59:41.059Z,20.40
2018-07-12T15:02:09.274Z,18.90
2018-07-12T15:04:37.451Z,19.40
2018-07-12T15:07:05.670Z,19.30
2018-07-12T15:09:33.919Z,19.30
2018-07-12T15:12:02.119Z,18.00
2018-07-12T15:14:30.286Z,17.53
2018-07-12T15:16:58.586Z,17.20
2018-07-12T15:19:26.851Z,16.40
2018-07-12T15:21:54.979Z,16.40
2018-07-12T15:24:23.183Z,16.77
2018-07-12T15:26:51.448Z,16.80
2018-07-12T15:29:19.711Z,16.53
2018-07-12T15:31:47.817Z,15.90
2018-07-12T15:34:16.091Z,15.07
2018-07-12T15:36:44.252Z,15.57
2018-07-12T15:39:12.430Z,16.33
2018-07-12T15:41:40.592Z,16.47
2018-07-12T15:44:08.973Z,16.10
2018-07-12T15:46:37.002Z,15.30
2018-07-12T15:49:05.374Z,16.00
2018-07-12T15:51:33.591Z,16.30
2018-07-12T15:54:01.834Z,15.73
2018-07-12T15:56:30.015Z,15.30
2018-07-12T15:58:58.333Z,14.67
2018-07-12T16:01:26.511Z,14.83
2018-07-12T16:03:54.805Z,14.57
2018-07-12T16:06:22.995Z,14.90
2018-07-12T16:08:51.166Z,15.27
2018-07-12T16:11:19.989Z,14.17
2018-07-12T16:13:48.211Z,14.00
2018-07-12T16:16:16.645Z,13.33
2018-07-12T16:18:44.851Z,13.60
2018-07-12T16:21:13.305Z,13.07
2018-07-12T16:23:41.616Z,14.00
2018-07-12T16:26:09.822Z,13.47
2018-07-12T16:28:38.031Z,14.90
2018-07-12T16:31:06.457Z,13.80
2018-07-12T16:33:34.684Z,15.00
2018-07-12T16:36:02.957Z,14.40
2018-07-12T16:38:31.414Z,14.90
2018-07-12T16:40:59.662Z,12.63
2018-07-12T16:43:27.906Z,13.40
2018-07-12T16:45:56.063Z,12.73
2018-07-12T16:48:24.238Z,13.00
2018-07-12T16:50:52.410Z,12.00
2018-07-12T16:53:20.582Z,13.10
2018-07-12T16:55:48.807Z,14.10
2018-07-12T16:58:17.072Z,14.90
2018-07-12T17:00:45.259Z,14.03
2018-07-12T17:03:13.544Z,14.03
2018-07-12T17:05:42.153Z,14.30
2018-07-12T17:08:10.318Z,15.63
2018-07-12T17:10:38.510Z,14.73
2018-07-12T17:13:06.697Z,14.70
2018-07-12T17:15:34.863Z,15.67
2018-07-12T17:18:03.027Z,14.40
2018-07-12T17:20:31.196Z,15.53
2018-07-12T17:22:59.367Z,14.50
2018-07-12T17:25:27.541Z,14.30
2018-07-12T17:27:55.699Z,16.07
2018-07-12T17:30:25.388Z,14.80
2018-07-12T17:32:53.554Z,14.83
2018-07-12T17:35:21.726Z,15.20
2018-07-12T17:37:49.887Z,14.57
2018-07-12T17:40:18.074Z,15.60
2018-07-12T17:42:46.251Z,16.70
2018-07-12T17:45:14.448Z,15.47
2018-07-12T17:47:42.651Z,15.30
2018-07-12T17:50:10.804Z,15.50
2018-07-12T17:52:39.002Z,15.67
2018-07-12T17:55:07.163Z,14.93
2018-07-12T17:57:35.342Z,16.23
2018-07-12T18:00:03.547Z,15.80
2018-07-12T18:02:31.744Z,15.40
2018-07-12T18:04:59.985Z,14.93
2018-07-12T18:07:28.135Z,15.60
2018-07-12T18:09:56.827Z,13.60
2018-07-12T18:12:25.004Z,15.10
2018-07-12T18:14:53.175Z,14.70
2018-07-12T18:17:21.402Z,14.13
2018-07-12T18:19:49.584Z,13.43
2018-07-12T18:22:17.888Z,14.53
2018-07-12T18:24:46.023Z,14.07
2018-07-12T18:27:14.238Z,13.03
2018-07-12T18:29:42.496Z,14.00
2018-07-12T18:32:10.819Z,14.40
2018-07-12T18:34:39.076Z,14.20
2018-07-12T18:37:07.287Z,12.80
2018-07-12T18:39:35.467Z,13.87
2018-07-12T18:42:03.772Z,14.37
2018-07-12T18:44:31.953Z,14.33
2018-07-12T18:47:00.137Z,14.30
2018-07-12T18:49:28.306Z,13.80
2018-07-12T18:51:56.710Z,13.30
2018-07-12T18:54:25.322Z,13.43
2018-07-12T18:56:56.240Z,13.70
2018-07-12T18:59:26.186Z,13.47
2018-07-12T19:01:54.455Z,13.47
2018-07-12T19:04:23.194Z,14.23
2018-07-12T19:06:51.653Z,13.00
2018-07-12T19:09:20.671Z,13.70
2018-07-12T19:11:49.429Z,13.70
2018-07-12T19:14:18.009Z,13.90
2018-07-12T19:16:46.672Z,13.73
2018-07-12T19:19:14.843Z,12.60
2018-07-12T19:21:43.030Z,14.93
2018-07-12T19:24:11.279Z,14.77
2018-07-12T19:26:39.487Z,13.47
2018-07-12T19:29:07.831Z,13.93
2018-07-12T19:31:36.187Z,13.00
2018-07-12T19:34:04.483Z,13.97
2018-07-12T19:36:32.652Z,13.87
2018-07-12T19:39:00.822Z,13.90
2018-07-12T19:41:29.012Z,14.00
2018-07-12T19:43:57.195Z,14.30
2018-07-12T19:46:25.459Z,13.63
2018-07-12T19:48:53.739Z,14.23
2018-07-12T19:51:21.899Z,14.47
2018-07-12T19:53:50.081Z,14.30
2018-07-12T19:56:18.247Z,13.97
2018-07-12T19:58:46.426Z,13.97
2018-07-12T20:01:14.605Z,14.57
2018-07-12T20:03:42.857Z,14.77
2018-07-12T20:06:10.991Z,15.00
2018-07-12T20:08:39.170Z,14.13
2018-07-12T20:11:07.350Z,14.20
2018-07-12T20:13:35.542Z,15.40
2018-07-12T20:16:03.746Z,14.20
2018-07-12T20:18:31.911Z,14.10
2018-07-12T20:21:00.092Z,13.90
2018-07-12T20:23:28.252Z,15.07
2018-07-12T20:25:56.636Z,15.27
2018-07-12T20:28:24.787Z,14.63
2018-07-12T20:30:52.982Z,14.20
2018-07-12T20:33:21.155Z,14.97
2018-07-12T20:35:49.331Z,13.90
2018-07-12T20:38:17.527Z,13.70
2018-07-12T20:40:45.985Z,14.13
2018-07-12T20:43:18.244Z,13.90
2018-07-12T20:45:46.807Z,14.70
2018-07-12T20:48:15.406Z,13.93
2018-07-12T20:50:43.510Z,14.87
2018-07-12T20:53:11.691Z,14.67
2018-07-12T20:55:39.866Z,14.27
2018-07-12T20:58:08.059Z,14.83
2018-07-12T21:00:36.231Z,15.13
2018-07-12T21:03:04.428Z,15.00
2018-07-12T21:05:32.595Z,13.73
2018-07-12T21:08:00.772Z,14.53
2018-07-12T21:10:29.002Z,15.23
2018-07-12T21:12:57.255Z,14.80
2018-07-12T21:15:25.504Z,15.43
2018-07-12T21:17:53.607Z,15.20
2018-07-12T21:20:21.799Z,16.10
2018-07-12T21:22:49.949Z,15.57
2018-07-12T21:25:18.115Z,15.43
2018-07-12T21:27:46.280Z,14.73
2018-07-12T21:30:14.464Z,16.00
2018-07-12T21:32:42.619Z,14.63
2018-07-12T21:35:10.779Z,15.47
2018-07-12T21:37:38.962Z,16.47
2018-07-12T21:40:07.460Z,16.30
2018-07-12T21:42:35.632Z,15.60
2018-07-12T21:45:03.882Z,15.30
2018-07-12T21:48:52.795Z,15.93
2018-07-12T21:51:20.966Z,15.97
2018-07-12T21:53:49.136Z,16.00
2018-07-12T21:56:17.306Z,16.20
2018-07-12T21:58:45.559Z,15.80
2018-07-12T22:01:14.019Z,17.23
2018-07-12T22:03:42.219Z,16.07
2018-07-12T22:06:10.380Z,15.53
2018-07-12T22:08:38.547Z,15.60
2018-07-12T22:11:07.169Z,16.87
2018-07-12T22:13:36.540Z,16.43
2018-07-12T22:16:04.735Z,15.20
2018-07-12T22:18:33.063Z,16.50
2018-07-12T22:21:01.260Z,15.17
2018-07-12T22:23:29.435Z,16.40
2018-07-12T22:25:57.628Z,17.13
2018-07-12T22:28:25.794Z,15.93
2018-07-12T22:30:53.970Z,17.20
2018-07-12T22:33:22.141Z,17.47
2018-07-12T22:35:50.314Z,16.93
2018-07-12T22:38:18.482Z,16.73
2018-07-12T22:40:46.658Z,16.03
2018-07-12T22:43:14.842Z,16.87
2018-07-12T22:45:43.003Z,16.70
2018-07-12T22:48:11.239Z,17.00
2018-07-12T22:50:39.338Z,17.50
2018-07-12T22:53:07.499Z,16.83
2018-07-12T22:55:35.678Z,16.30
2018-07-12T22:58:03.843Z,17.47
2018-07-12T23:00:32.013Z,17.63
2018-07-12T23:03:00.179Z,17.97
2018-07-12T23:05:28.359Z,16.93
2018-07-12T23:07:56.546Z,18.00
2018-07-12T23:10:24.718Z,18.17
2018-07-12T23:12:52.883Z,19.30
2018-07-12T23:15:21.055Z,18.70
2018-07-12T23:17:49.223Z,18.40
2018-07-12T23:20:17.386Z,18.27
2018-07-12T23:22:45.558Z,20.70
2018-07-12T23:25:13.724Z,19.47
2018-07-12T23:27:41.882Z,19.43
2018-07-12T23:30:10.063Z,19.90
2018-07-12T23:32:38.234Z,19.80
2018-07-12T23:35:06.564Z,21.20
2018-07-12T23:37:34.743Z,20.17
2018-07-12T23:40:02.906Z,20.40
2018-07-12T23:42:31.106Z,18.63
2018-07-12T23:44:59.270Z,20.30
2018-07-12T23:47:27.442Z,18.27
2018-07-12T23:49:55.610Z,18.37
2018-07-12T23:52:23.783Z,19.07
2018-07-12T23:54:51.948Z,18.77
2018-07-12T23:57:20.119Z,18.67
2018-07-12T23:59:48.306Z,19.00
